Terminal Aerodrome Forecast
Issued by NWS Albany, NY

Home | Current Version | Previous Version | Text Only | Print | Product List | Glossary On
Versions: 1 2 3 4 5 6 7 8 9 10 11 12 13 14 15 16 17 18 19 20 21
000
FTUS41 KALY 270520
TAFPOU
TAF
KPOU 270520Z 2706/2806 31004KT P6SM BKN050
     FM271000 34004KT P6SM BKN030
     FM271500 35005KT P6SM SCT030
     FM271900 VRB03KT P6SM BKN050
     FM280000 VRB03KT P6SM BKN030 BKN050=

USA.gov is the U.S. government's official web portal to all federal, state and local government web resources and services.